createdAt,value
2024-04-23T00:00:21.301Z,2.98
2024-04-23T00:02:48.555Z,2.61
2024-04-23T00:05:18.344Z,2.79
2024-04-23T00:07:45.550Z,2.86
2024-04-23T00:10:18.002Z,2.88
2024-04-23T00:12:45.163Z,3.00
2024-04-23T00:15:14.923Z,3.03
2024-04-23T00:17:42.169Z,2.90
2024-04-23T00:20:12.743Z,2.80
2024-04-23T00:22:39.969Z,2.69
2024-04-23T00:25:10.396Z,2.82
2024-04-23T00:27:40.146Z,2.76
2024-04-23T00:30:11.319Z,2.56
2024-04-23T00:32:38.592Z,2.78
2024-04-23T00:35:08.735Z,2.69
2024-04-23T00:37:35.962Z,2.59
2024-04-23T00:40:05.855Z,2.55
2024-04-23T00:42:32.989Z,2.39
2024-04-23T00:45:06.132Z,2.47
2024-04-23T00:47:33.338Z,2.47
2024-04-23T00:50:03.618Z,2.42
2024-04-23T00:52:31.171Z,2.25
2024-04-23T00:55:02.147Z,2.26
2024-04-23T00:57:29.320Z,2.26
2024-04-23T00:59:59.145Z,2.15
2024-04-23T01:02:29.519Z,2.25
2024-04-23T01:04:59.618Z,2.27
2024-04-23T01:07:26.848Z,2.21
2024-04-23T01:09:56.770Z,2.02
2024-04-23T01:12:24.035Z,2.20
2024-04-23T01:14:55.363Z,1.91
2024-04-23T01:17:24.533Z,2.11
2024-04-23T01:20:01.571Z,2.09
2024-04-23T01:22:33.641Z,2.00
2024-04-23T01:25:10.167Z,1.93
2024-04-23T01:27:41.025Z,2.06
2024-04-23T01:30:12.269Z,2.12
2024-04-23T01:32:41.957Z,2.09
2024-04-23T01:35:13.614Z,2.14
2024-04-23T01:37:43.968Z,2.08
2024-04-23T01:40:14.791Z,2.04
2024-04-23T01:42:45.050Z,2.04
2024-04-23T01:45:17.394Z,1.94
2024-04-23T01:47:45.798Z,1.97
2024-04-23T01:50:15.828Z,1.99
2024-04-23T01:52:43.456Z,1.93
2024-04-23T01:55:13.446Z,1.95
2024-04-23T01:57:40.770Z,1.79
2024-04-23T02:00:16.982Z,1.70
2024-04-23T02:02:46.711Z,1.68
2024-04-23T02:05:17.532Z,1.68
2024-04-23T02:07:45.387Z,1.80
2024-04-23T02:10:15.633Z,1.88
2024-04-23T02:12:42.793Z,1.83
2024-04-23T02:15:15.174Z,1.70
2024-04-23T02:17:42.445Z,1.78
2024-04-23T02:20:13.016Z,1.91
2024-04-23T02:22:40.236Z,1.96
2024-04-23T02:25:10.039Z,1.92
2024-04-23T02:27:37.213Z,1.82
2024-04-23T02:30:07.641Z,1.89
2024-04-23T02:32:37.524Z,1.68
2024-04-23T02:35:08.013Z,1.40
2024-04-23T02:37:35.237Z,1.59
2024-04-23T02:40:06.969Z,1.36
2024-04-23T02:42:34.517Z,1.46
2024-04-23T02:45:04.327Z,1.44
2024-04-23T02:47:31.567Z,1.20
2024-04-23T02:50:04.721Z,1.27
2024-04-23T02:52:31.875Z,1.25
2024-04-23T02:55:02.195Z,1.14
2024-04-23T02:57:29.316Z,1.22
2024-04-23T02:59:59.112Z,1.25
2024-04-23T03:02:26.374Z,1.15
2024-04-23T03:04:56.403Z,1.28
2024-04-23T03:07:26.199Z,1.50
2024-04-23T03:09:55.979Z,1.31
2024-04-23T03:12:23.159Z,1.19
2024-04-23T03:14:52.995Z,1.38
2024-04-23T03:17:20.150Z,1.33
2024-04-23T03:19:49.963Z,1.11
2024-04-23T03:22:17.168Z,0.87
2024-04-23T03:24:49.553Z,0.89
2024-04-23T03:27:16.747Z,0.84
2024-04-23T03:29:46.530Z,1.06
2024-04-23T03:32:13.778Z,0.95
2024-04-23T03:34:43.651Z,0.93
2024-04-23T03:37:13.448Z,1.10
2024-04-23T03:39:43.184Z,0.97
2024-04-23T03:42:12.979Z,1.01
2024-04-23T03:44:45.655Z,0.89
2024-04-23T03:47:17.457Z,1.07
2024-04-23T03:49:46.046Z,0.99
2024-04-23T03:52:17.509Z,1.28
2024-04-23T03:54:46.157Z,1.09
2024-04-23T03:57:21.159Z,0.91
2024-04-23T03:59:50.048Z,0.85
2024-04-23T04:02:43.855Z,0.95
2024-04-23T04:05:29.490Z,1.01
2024-04-23T04:07:59.273Z,1.09
2024-04-23T04:10:29.108Z,0.80
2024-04-23T04:13:12.911Z,0.98
2024-04-23T04:15:51.426Z,0.74
2024-04-23T04:18:18.958Z,0.63
2024-04-23T04:20:49.101Z,0.78
2024-04-23T04:23:16.265Z,0.69
2024-04-23T04:25:46.120Z,0.83
2024-04-23T04:28:15.953Z,0.81
2024-04-23T04:30:45.690Z,0.77
2024-04-23T04:33:12.904Z,0.86
2024-04-23T04:35:42.684Z,0.97
2024-04-23T04:38:09.883Z,0.98
2024-04-23T04:40:39.725Z,0.87
2024-04-23T04:43:06.879Z,0.75
2024-04-23T04:45:39.260Z,1.00
2024-04-23T04:48:07.223Z,0.60
2024-04-23T04:50:37.088Z,0.89
2024-04-23T04:53:04.449Z,0.82
2024-04-23T04:55:34.519Z,0.73
2024-04-23T04:58:01.682Z,0.86
2024-04-23T05:00:31.425Z,0.78
2024-04-23T05:03:01.286Z,0.73
2024-04-23T05:05:31.041Z,0.66
2024-04-23T05:07:58.395Z,0.77
2024-04-23T05:10:28.241Z,0.78
2024-04-23T05:12:55.405Z,0.70
2024-04-23T05:15:25.164Z,0.72
2024-04-23T05:17:52.339Z,0.88
2024-04-23T05:20:24.783Z,0.80
2024-04-23T05:22:51.957Z,0.77
2024-04-23T05:25:22.471Z,0.81
2024-04-23T05:27:50.184Z,0.77
2024-04-23T05:30:43.016Z,0.86
2024-04-23T05:33:10.334Z,0.91
2024-04-23T05:35:42.969Z,0.80
2024-04-23T05:38:15.113Z,0.91
2024-04-23T05:40:46.628Z,1.19
2024-04-23T05:43:16.426Z,1.04
2024-04-23T05:45:46.220Z,1.19
2024-04-23T05:48:53.578Z,1.35
2024-04-23T05:51:57.954Z,1.10
2024-04-23T05:55:05.011Z,1.21
2024-04-23T05:57:34.787Z,1.29
2024-04-23T06:00:04.924Z,1.22
2024-04-23T06:02:32.084Z,1.26
2024-04-23T06:05:01.944Z,1.27
2024-04-23T06:07:29.382Z,1.37
2024-04-23T06:09:59.127Z,1.31
2024-04-23T06:12:28.940Z,1.23
2024-04-23T06:14:58.711Z,1.25
2024-04-23T06:17:35.957Z,1.18
2024-04-23T06:20:12.534Z,1.26
2024-04-23T06:22:40.840Z,1.20
2024-04-23T06:25:11.684Z,1.16
2024-04-23T06:27:40.351Z,1.26
2024-04-23T06:30:16.586Z,0.99
2024-04-23T06:32:44.185Z,1.15
2024-04-23T06:35:15.526Z,1.37
2024-04-23T06:37:45.531Z,1.44
2024-04-23T06:40:12.918Z,1.41
2024-04-23T06:42:42.734Z,1.28
2024-04-23T06:45:12.567Z,1.30
2024-04-23T06:47:42.356Z,1.61
2024-04-23T06:50:09.845Z,1.74
2024-04-23T06:52:39.626Z,1.80
2024-04-23T06:55:06.949Z,1.77
2024-04-23T06:57:38.810Z,1.82
2024-04-23T07:00:09.670Z,1.61
2024-04-23T07:02:39.528Z,1.74
2024-04-23T07:05:10.514Z,2.22
2024-04-23T07:07:37.782Z,2.34
2024-04-23T07:10:09.225Z,2.31
2024-04-23T07:12:36.435Z,2.00
2024-04-23T07:15:06.516Z,2.13
2024-04-23T07:17:33.894Z,2.49
2024-04-23T07:20:07.099Z,2.88
2024-04-23T07:22:34.302Z,3.12
2024-04-23T07:25:04.184Z,3.42
2024-04-23T07:27:31.383Z,3.31
2024-04-23T07:30:01.144Z,3.40
2024-04-23T07:32:28.432Z,2.98
2024-04-23T07:34:58.783Z,2.83
2024-04-23T07:37:29.126Z,2.90
2024-04-23T07:39:58.964Z,2.84
2024-04-23T07:42:26.100Z,3.08
2024-04-23T07:44:55.895Z,3.43
2024-04-23T07:47:23.106Z,3.73
2024-04-23T07:49:53.141Z,3.82
2024-04-23T07:52:20.309Z,3.86
2024-04-23T07:54:52.713Z,4.30
2024-04-23T07:57:20.454Z,4.61
2024-04-23T07:59:50.887Z,4.87
2024-04-23T08:02:18.515Z,4.81
2024-04-23T08:04:48.400Z,4.34
2024-04-23T08:07:15.631Z,4.82
2024-04-23T08:09:45.398Z,4.67
2024-04-23T08:12:15.202Z,4.40
2024-04-23T08:14:45.017Z,4.94
2024-04-23T08:17:12.314Z,4.90
2024-04-23T08:19:42.204Z,4.92
2024-04-23T08:22:09.354Z,4.65
2024-04-23T08:24:39.156Z,5.13
2024-04-23T08:27:06.564Z,5.14
2024-04-23T08:29:38.942Z,5.17
2024-04-23T08:32:06.516Z,5.28
2024-04-23T08:34:36.307Z,5.25
2024-04-23T08:37:07.327Z,5.59
2024-04-23T08:39:37.174Z,5.71
2024-04-23T08:42:12.605Z,5.71
2024-04-23T08:44:45.368Z,6.46
2024-04-23T08:47:15.714Z,5.89
2024-04-23T08:49:46.080Z,5.53
2024-04-23T08:52:16.169Z,6.24
2024-04-23T08:54:46.368Z,6.48
2024-04-23T08:57:15.091Z,6.46
2024-04-23T08:59:49.748Z,6.68
2024-04-23T09:02:29.341Z,6.38
2024-04-23T09:05:01.334Z,6.45
2024-04-23T09:07:33.090Z,6.81
2024-04-23T09:10:04.165Z,6.16
2024-04-23T09:12:32.271Z,6.62
2024-04-23T09:15:05.371Z,6.90
2024-04-23T09:17:34.785Z,6.45
2024-04-23T09:20:06.320Z,7.29
2024-04-23T09:22:33.690Z,7.54
2024-04-23T09:25:06.787Z,7.53
2024-04-23T09:27:38.126Z,8.03
2024-04-23T09:30:13.485Z,8.30
2024-04-23T09:32:41.568Z,7.75
2024-04-23T09:35:18.818Z,7.22
2024-04-23T09:37:50.371Z,7.32
2024-04-23T09:40:20.322Z,7.89
2024-04-23T09:42:53.926Z,7.47
2024-04-23T09:45:29.730Z,8.20
2024-04-23T09:47:57.086Z,8.04
2024-04-23T09:50:31.665Z,8.43
2024-04-23T09:53:02.629Z,8.36
2024-04-23T09:55:32.626Z,8.94
2024-04-23T09:57:59.788Z,8.89
2024-04-23T10:00:34.139Z,8.70
2024-04-23T10:03:15.268Z,9.33
2024-04-23T10:05:50.699Z,8.87
2024-04-23T10:08:25.330Z,8.74
2024-04-23T10:10:58.817Z,8.95
2024-04-23T10:13:32.853Z,8.13
2024-04-23T10:16:11.434Z,8.34
2024-04-23T10:18:44.984Z,8.30
2024-04-23T10:21:18.001Z,8.28
2024-04-23T10:23:45.833Z,7.93
2024-04-23T10:26:15.998Z,8.35
2024-04-23T10:28:43.957Z,8.67
2024-04-23T10:31:17.230Z,9.46
2024-04-23T10:33:49.258Z,9.49
2024-04-23T10:36:21.172Z,9.01
2024-04-23T10:38:51.733Z,8.69
2024-04-23T10:41:22.802Z,8.62
2024-04-23T10:43:51.111Z,8.36
2024-04-23T10:46:23.860Z,8.58
2024-04-23T10:48:55.273Z,8.69
2024-04-23T10:51:26.982Z,8.52
2024-04-23T10:53:54.195Z,8.63
2024-04-23T10:56:27.945Z,8.85
2024-04-23T10:59:05.367Z,8.81
2024-04-23T11:01:38.089Z,8.52
2024-04-23T11:04:07.178Z,8.47
2024-04-23T11:06:40.160Z,8.27
2024-04-23T11:09:13.988Z,8.37
2024-04-23T11:11:51.723Z,8.31
2024-04-23T11:14:18.879Z,8.39
2024-04-23T11:17:02.833Z,8.47
2024-04-23T11:19:36.730Z,8.60
2024-04-23T11:22:11.021Z,8.83
2024-04-23T11:24:45.577Z,8.57
2024-04-23T11:27:16.897Z,8.84
2024-04-23T11:29:46.698Z,8.87
2024-04-23T11:32:20.034Z,8.82
2024-04-23T11:34:48.501Z,8.97
2024-04-23T11:37:25.845Z,8.86
2024-04-23T11:39:57.456Z,8.75
2024-04-23T11:42:27.964Z,8.61
2024-04-23T11:44:57.544Z,8.38
2024-04-23T11:47:30.999Z,8.25
2024-04-23T11:50:02.876Z,8.25
2024-04-23T11:52:32.879Z,8.37
2024-04-23T11:55:00.790Z,8.59
2024-04-23T11:57:30.831Z,8.70
2024-04-23T11:59:58.585Z,9.03
2024-04-23T12:02:31.009Z,9.18
2024-04-23T12:05:00.326Z,9.48
2024-04-23T12:07:30.633Z,9.23
2024-04-23T12:10:05.182Z,9.86
2024-04-23T12:12:37.219Z,9.48
2024-04-23T12:15:06.943Z,9.17
2024-04-23T12:17:41.389Z,8.89
2024-04-23T12:20:10.677Z,8.96
2024-04-23T12:22:46.498Z,8.52
2024-04-23T12:25:15.744Z,8.97
2024-04-23T12:27:48.139Z,9.01
2024-04-23T12:30:20.067Z,9.09
2024-04-23T12:32:56.042Z,9.46
2024-04-23T12:35:23.537Z,9.45
2024-04-23T12:38:01.466Z,9.37
2024-04-23T12:40:28.894Z,9.35
2024-04-23T12:43:01.641Z,9.31
2024-04-23T12:45:28.926Z,9.12
2024-04-23T12:48:02.652Z,9.03
2024-04-23T12:50:31.064Z,9.08
2024-04-23T12:53:01.024Z,9.15
2024-04-23T12:55:29.392Z,8.88
2024-04-23T12:57:59.201Z,8.87
2024-04-23T13:00:26.423Z,8.78
2024-04-23T13:02:56.871Z,8.94
2024-04-23T13:05:26.747Z,8.95
2024-04-23T13:07:56.568Z,9.15
2024-04-23T13:10:23.844Z,9.08
2024-04-23T13:12:54.413Z,9.34
2024-04-23T13:15:21.589Z,9.29
2024-04-23T13:17:52.741Z,9.09
2024-04-23T13:20:19.972Z,9.03
2024-04-23T13:22:52.470Z,8.97
2024-04-23T13:25:19.626Z,8.98
2024-04-23T13:27:49.463Z,9.15
2024-04-23T13:30:16.662Z,8.93
2024-04-23T13:32:46.516Z,8.72
2024-04-23T13:35:13.829Z,8.83
2024-04-23T13:37:43.708Z,8.70
2024-04-23T13:40:13.736Z,8.93
2024-04-23T13:42:43.527Z,8.78
2024-04-23T13:45:11.165Z,9.07
2024-04-23T13:47:42.460Z,8.90
2024-04-23T13:50:11.164Z,9.04
2024-04-23T13:52:43.268Z,9.02
2024-04-23T13:55:10.794Z,8.94
2024-04-23T13:57:43.284Z,9.12
2024-04-23T14:00:10.894Z,9.08
2024-04-23T14:02:40.636Z,9.00
2024-04-23T14:05:07.865Z,8.98
2024-04-23T14:07:41.183Z,8.97
2024-04-23T14:10:08.583Z,9.01
2024-04-23T14:12:39.176Z,8.85
2024-04-23T14:15:09.100Z,8.77
2024-04-23T14:17:38.904Z,8.80
2024-04-23T14:20:07.721Z,8.75
2024-04-23T14:22:38.451Z,8.78
2024-04-23T14:25:06.393Z,8.77
2024-04-23T14:27:36.194Z,8.62
2024-04-23T14:30:03.947Z,8.66
2024-04-23T14:32:36.543Z,8.69
2024-04-23T14:35:09.468Z,8.79
2024-04-23T14:37:39.720Z,8.78
2024-04-23T14:40:08.284Z,8.84
2024-04-23T14:42:38.261Z,8.82
2024-04-23T14:45:06.418Z,9.05
2024-04-23T14:47:40.558Z,8.95
2024-04-23T14:50:12.614Z,9.05
2024-04-23T14:52:42.462Z,9.01
2024-04-23T14:55:09.652Z,9.02
2024-04-23T14:57:39.434Z,9.12
2024-04-23T15:00:08.263Z,9.03
2024-04-23T15:02:40.807Z,8.98
2024-04-23T15:05:08.077Z,8.97
2024-04-23T15:07:37.930Z,8.96
2024-04-23T15:10:10.999Z,8.72
2024-04-23T15:12:38.262Z,8.93
2024-04-23T15:15:09.281Z,8.91
2024-04-23T15:17:39.413Z,8.85
2024-04-23T15:20:10.481Z,8.78
2024-04-23T15:22:37.656Z,8.84
2024-04-23T15:25:07.852Z,8.78
2024-04-23T15:27:35.037Z,8.95
2024-04-23T15:30:05.029Z,8.93
2024-04-23T15:32:32.593Z,8.99
2024-04-23T15:35:05.189Z,9.11
2024-04-23T15:37:32.581Z,8.98
2024-04-23T15:40:03.212Z,8.98
2024-04-23T15:42:33.121Z,8.95
2024-04-23T15:45:02.884Z,8.87
2024-04-23T15:47:30.081Z,8.93
2024-04-23T15:50:00.004Z,8.81
2024-04-23T15:52:29.799Z,8.84
2024-04-23T15:54:59.573Z,8.82
2024-04-23T15:57:26.714Z,8.73
2024-04-23T15:59:56.519Z,8.61
2024-04-23T16:02:25.540Z,8.72
2024-04-23T16:04:55.465Z,8.56
2024-04-23T16:07:22.730Z,8.64
2024-04-23T16:09:55.423Z,8.68
2024-04-23T16:12:22.711Z,8.56
2024-04-23T16:14:52.615Z,8.60
2024-04-23T16:17:19.828Z,8.59
2024-04-23T16:19:49.848Z,8.67
2024-04-23T16:22:16.986Z,8.60
2024-04-23T16:24:46.824Z,8.59
2024-04-23T16:27:16.596Z,8.55
2024-04-23T16:29:46.359Z,8.54
2024-04-23T16:32:13.576Z,8.44
2024-04-23T16:34:43.668Z,8.49
2024-04-23T16:37:10.877Z,8.47
2024-04-23T16:39:40.739Z,8.33
2024-04-23T16:42:09.387Z,8.47
2024-04-23T16:44:41.776Z,8.52
2024-04-23T16:47:08.991Z,8.54
2024-04-23T16:49:38.974Z,8.52
2024-04-23T16:52:06.106Z,8.48
2024-04-23T16:54:35.923Z,8.43
2024-04-23T16:57:03.095Z,8.35
2024-04-23T16:59:32.899Z,8.40
2024-04-23T17:02:02.823Z,8.33
2024-04-23T17:04:34.993Z,8.25
2024-04-23T17:07:02.197Z,8.29
2024-04-23T17:09:32.358Z,8.31
2024-04-23T17:11:59.617Z,8.27
2024-04-23T17:14:29.556Z,8.31
2024-04-23T17:16:56.804Z,8.30
2024-04-23T17:19:29.365Z,8.25
2024-04-23T17:21:56.473Z,8.22
2024-04-23T17:24:26.214Z,8.22
2024-04-23T17:26:53.330Z,8.06
2024-04-23T17:29:23.131Z,8.09
2024-04-23T17:31:50.516Z,8.10
2024-04-23T17:34:20.394Z,8.10
2024-04-23T17:36:50.192Z,8.08
2024-04-23T17:39:20.008Z,8.02
2024-04-23T17:41:47.200Z,7.94
2024-04-23T17:44:17.141Z,7.95
2024-04-23T17:46:44.428Z,7.79
2024-04-23T17:49:14.375Z,7.76
2024-04-23T17:51:41.520Z,7.80
2024-04-23T17:54:13.944Z,7.75
2024-04-23T17:56:41.788Z,7.77
2024-04-23T17:59:11.766Z,7.66
2024-04-23T18:01:39.024Z,7.48
2024-04-23T18:04:08.831Z,7.59
2024-04-23T18:06:36.027Z,7.56
2024-04-23T18:09:06.298Z,7.51
2024-04-23T18:11:37.136Z,7.51
2024-04-23T18:14:07.034Z,7.25
2024-04-23T18:16:35.331Z,7.44
2024-04-23T18:19:05.118Z,7.37
2024-04-23T18:21:32.256Z,7.37
2024-04-23T18:24:01.998Z,7.24
2024-04-23T18:26:29.198Z,7.23
2024-04-23T18:29:01.669Z,7.21
2024-04-23T18:31:28.826Z,7.14
2024-04-23T18:33:59.639Z,7.11
2024-04-23T18:36:26.780Z,7.08
2024-04-23T18:38:58.437Z,7.01
2024-04-23T18:41:25.661Z,6.99
2024-04-23T18:43:55.526Z,6.86
2024-04-23T18:46:25.311Z,6.92
2024-04-23T18:48:55.140Z,6.89
2024-04-23T18:51:22.668Z,6.82
2024-04-23T18:53:52.522Z,6.79
2024-04-23T18:56:20.078Z,6.79
2024-04-23T18:58:51.056Z,6.70
2024-04-23T19:01:19.359Z,6.72
2024-04-23T19:03:51.938Z,6.64
2024-04-23T19:06:20.962Z,6.63
2024-04-23T19:08:51.688Z,6.60
2024-04-23T19:11:26.922Z,6.50
2024-04-23T19:14:07.795Z,6.54
2024-04-23T19:16:43.078Z,6.49
2024-04-23T19:19:15.793Z,6.43
2024-04-23T19:21:43.030Z,6.39
2024-04-23T19:24:12.847Z,6.23
2024-04-23T19:26:41.046Z,6.17
2024-04-23T19:29:11.069Z,6.11
2024-04-23T19:31:38.378Z,6.09
2024-04-23T19:34:08.153Z,6.03
2024-04-23T19:36:37.932Z,5.82
2024-04-23T19:39:07.791Z,5.69
2024-04-23T19:41:34.999Z,5.66
2024-04-23T19:44:04.912Z,5.64
2024-04-23T19:46:33.986Z,5.49
2024-04-23T19:49:03.884Z,5.55
2024-04-23T19:51:31.789Z,5.55
2024-04-23T19:54:05.184Z,5.56
2024-04-23T19:56:47.328Z,5.43
2024-04-23T19:59:17.251Z,5.58
2024-04-23T20:01:47.106Z,5.52
2024-04-23T20:04:17.432Z,5.48
2024-04-23T20:06:47.406Z,5.45
2024-04-23T20:09:21.766Z,5.33
2024-04-23T20:11:52.539Z,5.41
2024-04-23T20:14:22.482Z,5.26
2024-04-23T20:16:52.387Z,5.25
2024-04-23T20:19:22.137Z,5.30
2024-04-23T20:21:51.921Z,5.38
2024-04-23T20:24:24.324Z,5.31
2024-04-23T20:26:51.517Z,5.27
2024-04-23T20:29:21.273Z,5.10
2024-04-23T20:31:51.580Z,5.29
2024-04-23T20:34:21.355Z,5.12
2024-04-23T20:36:51.128Z,5.14
2024-04-23T20:39:20.921Z,5.31
2024-04-23T20:41:53.376Z,5.26
2024-04-23T20:44:23.199Z,5.30
2024-04-23T20:46:50.469Z,5.36
2024-04-23T20:49:20.259Z,5.35
2024-04-23T20:51:50.004Z,5.15
2024-04-23T20:54:20.086Z,5.16
2024-04-23T20:56:49.832Z,5.05
2024-04-23T20:59:22.846Z,5.01
2024-04-23T21:01:52.668Z,5.00
2024-04-23T21:04:22.515Z,4.92
2024-04-23T21:06:52.315Z,4.87
2024-04-23T21:09:22.128Z,4.83
2024-04-23T21:11:51.942Z,4.71
2024-04-23T21:14:24.519Z,4.70
2024-04-23T21:16:54.336Z,4.36
2024-04-23T21:19:26.279Z,4.26
2024-04-23T21:21:56.046Z,4.18
2024-04-23T21:24:25.836Z,4.17
2024-04-23T21:26:55.587Z,4.02
2024-04-23T21:29:28.008Z,3.99
2024-04-23T21:31:57.811Z,3.86
2024-04-23T21:34:27.642Z,4.01
2024-04-23T21:36:54.847Z,3.61
2024-04-23T21:39:24.584Z,3.73
2024-04-23T21:41:57.860Z,3.74
2024-04-23T21:44:30.827Z,3.85
2024-04-23T21:47:00.665Z,3.67
2024-04-23T21:49:30.503Z,3.70
2024-04-23T21:52:16.422Z,3.76
2024-04-23T21:54:50.122Z,3.58
2024-04-23T21:57:19.866Z,3.56
2024-04-23T21:59:52.289Z,3.57
2024-04-23T22:02:22.075Z,3.45
2024-04-23T22:04:52.095Z,3.37
2024-04-23T22:07:19.210Z,3.23
2024-04-23T22:09:48.996Z,3.26
2024-04-23T22:12:18.851Z,3.14
2024-04-23T22:14:48.622Z,3.14
2024-04-23T22:17:21.289Z,3.04
2024-04-23T22:19:51.221Z,3.08
2024-04-23T22:22:21.111Z,3.04
2024-04-23T22:24:50.926Z,2.92
2024-04-23T22:27:20.686Z,2.89
2024-04-23T22:29:50.451Z,2.86
2024-04-23T22:32:23.002Z,2.99
2024-04-23T22:34:52.808Z,3.03
2024-04-23T22:37:22.644Z,2.98
2024-04-23T22:39:52.436Z,2.72
2024-04-23T22:42:22.231Z,2.89
2024-04-23T22:44:51.989Z,2.85
2024-04-23T22:47:25.581Z,2.84
2024-04-23T22:49:55.511Z,2.85
2024-04-23T22:52:25.300Z,2.78
2024-04-23T22:54:55.062Z,2.77
2024-04-23T22:57:24.871Z,2.75
2024-04-23T22:59:54.616Z,2.55
2024-04-23T23:02:27.092Z,2.59
2024-04-23T23:04:56.965Z,2.49
2024-04-23T23:07:26.714Z,2.52
2024-04-23T23:09:56.498Z,2.54
2024-04-23T23:12:26.262Z,2.50
2024-04-23T23:14:56.021Z,2.55
2024-04-23T23:17:28.526Z,2.50
2024-04-23T23:19:58.454Z,2.59
2024-04-23T23:22:28.319Z,2.62
2024-04-23T23:24:58.081Z,2.59
2024-04-23T23:27:27.857Z,2.53
2024-04-23T23:29:57.627Z,2.46
2024-04-23T23:32:30.152Z,2.24
2024-04-23T23:35:00.089Z,2.21
2024-04-23T23:37:29.965Z,2.24
2024-04-23T23:39:59.719Z,2.20
2024-04-23T23:42:29.531Z,2.15
2024-04-23T23:44:59.287Z,2.09
2024-04-23T23:47:31.813Z,2.04
2024-04-23T23:50:02.868Z,2.10
2024-04-23T23:52:32.730Z,2.12
2024-04-23T23:55:02.497Z,2.12
2024-04-23T23:57:32.265Z,2.09
